Time;durP1;ratioP1;P1;durP2;ratioP2;P2;SDS_P1;SDS_P2;PMS_P1;PMS_P2;Temp;Humidity;BMP_temperature;BMP_pressure;BME280_temperature;BME280_humidity;BME280_pressure;Samples;Min_cycle;Max_cycle;Signal;HPM_P1;HPM_P2
2021/07/31 00:00:39;;;;;;;6.55;5.40;;;;;;;19.88;72.75;98638.94;5009222;28;20459;-75
2021/07/31 00:03:05;;;;;;;10.13;5.43;;;;;;;20.29;71.60;98651.56;5009951;28;20064;-74
2021/07/31 00:05:31;;;;;;;8.50;5.65;;;;;;;20.15;72.41;98656.31;5008933;28;20483;-73
2021/07/31 00:07:56;;;;;;;5.68;4.82;;;;;;;20.14;71.01;98665.25;5009142;28;20054;-73
2021/07/31 00:10:41;;;;;;;8.45;5.63;;;;;;;19.58;73.32;98660.81;5008865;28;20080;-74
2021/07/31 00:13:07;;;;;;;9.45;5.85;;;;;;;19.33;74.28;98669.78;5009401;28;20081;-73
2021/07/31 00:15:32;;;;;;;6.38;5.75;;;;;;;19.11;75.02;98668.88;5008382;28;20042;-73
2021/07/31 00:17:58;;;;;;;11.40;6.55;;;;;;;18.89;77.02;98665.22;5009618;28;20046;-72
2021/07/31 00:20:42;;;;;;;8.88;6.20;;;;;;;18.76;78.01;98666.25;5009410;28;20096;-72
2021/07/31 00:23:09;;;;;;;11.38;6.97;;;;;;;18.61;78.68;98663.78;5009743;28;20046;-72
2021/07/31 00:25:35;;;;;;;11.73;7.40;;;;;;;18.54;78.93;98673.09;5011514;28;20188;-73
2021/07/31 00:28:01;;;;;;;11.23;6.85;;;;;;;18.43;79.02;98658.00;5013724;28;20062;-72
2021/07/31 00:30:28;;;;;;;10.95;7.35;;;;;;;18.42;79.80;98672.19;5014909;28;20132;-74
2021/07/31 00:32:55;;;;;;;10.80;7.00;;;;;;;18.32;80.26;98670.31;5012229;28;20068;-73
2021/07/31 00:35:21;;;;;;;12.93;7.70;;;;;;;18.26;80.62;98666.31;5012263;28;20136;-73
2021/07/31 00:37:47;;;;;;;10.05;7.85;;;;;;;18.17;80.90;98666.16;5012698;28;20042;-73
2021/07/31 00:40:13;;;;;;;10.00;7.82;;;;;;;18.10;81.19;98666.59;5012727;28;20068;-72
2021/07/31 00:42:41;;;;;;;13.93;8.55;;;;;;;18.06;81.43;98670.41;5011890;28;20108;-72
2021/07/31 00:45:11;;;;;;;12.10;7.93;;;;;;;18.03;81.15;98668.00;4964291;28;20045;-72
2021/07/31 00:47:38;;;;;;;12.32;8.43;;;;;;;18.04;81.18;98671.47;4979982;28;20528;-72
2021/07/31 00:50:05;;;;;;;9.18;6.95;;;;;;;18.06;80.69;98659.81;5012407;28;20050;-72
2021/07/31 00:52:31;;;;;;;12.02;8.25;;;;;;;17.98;81.18;98664.81;4996573;28;20045;-72
2021/07/31 00:54:59;;;;;;;9.77;7.75;;;;;;;18.01;81.02;98651.38;4996580;28;20050;-72
2021/07/31 00:57:26;;;;;;;10.20;7.72;;;;;;;18.01;80.93;98666.41;5013207;28;20042;-71
2021/07/31 01:00:11;;;;;;;12.55;7.22;;;;;;;18.34;80.38;98668.41;5014537;28;20054;-72
2021/07/31 01:02:36;;;;;;;8.02;6.80;;;;;;;18.12;80.25;98670.94;5014757;28;20499;-74
2021/07/31 01:05:03;;;;;;;9.45;7.47;;;;;;;18.06;80.60;98675.72;5012938;28;20037;-73
2021/07/31 01:07:30;;;;;;;12.43;7.68;;;;;;;17.99;80.76;98673.59;4981219;28;20503;-73
2021/07/31 01:09:56;;;;;;;9.88;8.38;;;;;;;17.83;81.36;98665.91;5029091;28;20073;-72
2021/07/31 01:12:22;;;;;;;13.82;7.95;;;;;;;17.63;81.43;98646.13;4996718;28;20103;-72
2021/07/31 01:14:48;;;;;;;9.25;7.30;;;;;;;17.82;81.34;98673.94;5011817;28;20495;-75
2021/07/31 01:17:19;;;;;;;10.07;7.10;;;;;;;17.81;80.79;98665.16;4981809;28;20052;-73
2021/07/31 01:19:46;;;;;;;8.88;7.25;;;;;;;18.14;79.73;98663.72;5012227;28;20069;-73
2021/07/31 01:22:12;;;;;;;10.70;7.10;;;;;;;18.09;79.58;98680.78;5014545;28;20447;-71
2021/07/31 01:24:38;;;;;;;14.95;7.13;;;;;;;17.91;79.96;98666.22;4995577;28;20434;-73
2021/07/31 01:27:04;;;;;;;10.85;7.07;;;;;;;17.85;80.48;98679.88;5011012;28;20069;-73
2021/07/31 01:29:31;;;;;;;11.05;7.60;;;;;;;17.71;81.08;98677.34;5011090;28;20138;-72
2021/07/31 01:31:56;;;;;;;8.32;6.80;;;;;;;17.60;81.33;98674.56;5010548;28;20165;-73
2021/07/31 01:34:23;;;;;;;14.32;8.32;;;;;;;17.54;82.10;98682.94;5011160;28;20052;-72
2021/07/31 01:36:49;;;;;;;9.05;8.02;;;;;;;17.41;82.14;98665.28;4993977;28;20038;-71
2021/07/31 01:39:17;;;;;;;8.57;6.90;;;;;;;17.48;82.30;98674.47;5010400;28;20049;-72
2021/07/31 01:42:05;;;;;;;16.95;7.38;;;;;;;17.46;82.33;98679.03;5013504;28;20529;-73
2021/07/31 01:44:34;;;;;;;11.27;7.93;;;;;;;17.44;82.43;98675.63;5010496;28;20478;-72
2021/07/31 01:47:00;;;;;;;8.40;6.95;;;;;;;17.46;82.26;98672.88;4995088;28;20599;-73
2021/07/31 01:49:26;;;;;;;9.77;7.80;;;;;;;17.54;82.18;98682.94;4995621;28;20398;-72
2021/07/31 01:51:59;;;;;;;19.10;7.05;;;;;;;17.55;81.52;98674.06;5011560;28;20058;-72
2021/07/31 01:54:25;;;;;;;8.45;6.63;;;;;;;17.64;81.20;98684.81;5028143;28;20045;-71
2021/07/31 01:56:52;;;;;;;7.50;6.43;;;;;;;17.61;81.19;98684.19;5010783;28;20042;-71
2021/07/31 01:59:22;;;;;;;7.22;6.47;;;;;;;17.64;81.19;98689.28;5027963;28;20042;-71
2021/07/31 02:01:48;;;;;;;12.00;7.53;;;;;;;17.62;81.13;98689.38;4994653;28;20049;-73
2021/07/31 02:04:16;;;;;;;10.30;6.60;;;;;;;17.71;80.71;98686.13;4995349;28;20045;-72
2021/07/31 02:06:53;;;;;;;10.45;6.03;;;;;;;17.73;80.51;98689.50;5010157;28;20423;-70
2021/07/31 02:09:20;;;;;;;8.27;6.30;;;;;;;17.70;80.99;98695.00;4995875;28;20046;-72
2021/07/31 02:11:46;;;;;;;11.15;7.63;;;;;;;17.65;81.37;98698.91;4978074;28;20096;-72
2021/07/31 02:14:12;;;;;;;13.90;7.63;;;;;;;17.65;81.53;98690.97;4978521;28;20046;-71
2021/07/31 02:16:44;;;;;;;;;;;;;;;17.58;81.59;98692.34;5028373;28;20049;-72
2021/07/31 02:19:16;;;;;;;10.40;7.78;;;;;;;17.64;81.71;98694.56;5010319;28;19925;-71
2021/07/31 02:21:58;;;;;;;8.88;6.63;;;;;;;18.20;79.28;98695.03;5012739;28;20049;-72
2021/07/31 02:24:42;;;;;;;15.00;7.10;;;;;;;18.72;77.09;98706.22;5011385;28;20046;-72
2021/07/31 02:27:17;;;;;;;11.43;6.85;;;;;;;18.94;75.44;98686.91;5010558;28;20058;-71
2021/07/31 02:29:59;;;;;;;8.07;6.20;;;;;;;19.46;73.59;98703.31;5027036;28;20081;-71
2021/07/31 02:32:26;;;;;;;12.27;6.88;;;;;;;19.64;72.32;98701.91;5012634;28;20100;-72
2021/07/31 02:34:52;;;;;;;9.55;6.10;;;;;;;19.82;71.66;98713.75;5011231;28;20041;-71
2021/07/31 02:37:19;;;;;;;8.35;6.20;;;;;;;20.07;70.73;98707.38;4977615;28;20053;-71
2021/07/31 02:39:52;;;;;;;9.43;6.85;;;;;;;20.35;69.39;98705.16;5011524;28;20041;-71
2021/07/31 02:42:18;;;;;;;17.38;9.13;;;;;;;20.59;68.20;98701.38;5012382;28;20092;-71
2021/07/31 02:44:45;;;;;;;12.70;8.20;;;;;;;20.94;66.95;98709.13;5026711;28;20133;-71
2021/07/31 02:47:16;;;;;;;10.88;8.63;;;;;;;21.01;66.49;98692.66;4994423;28;20052;-73
2021/07/31 02:49:47;;;;;;;14.93;7.88;;;;;;;21.41;65.34;98706.97;5027724;28;20095;-73
2021/07/31 02:52:13;;;;;;;11.18;7.75;;;;;;;21.75;63.98;98696.94;5012219;28;20129;-70
2021/07/31 02:54:48;;;;;;;11.02;7.57;;;;;;;22.09;62.94;98704.66;5027340;28;20069;-71
2021/07/31 02:57:14;;;;;;;20.80;7.47;;;;;;;22.41;61.44;98697.34;5027421;28;20052;-70
2021/07/31 02:59:40;;;;;;;12.05;6.60;;;;;;;22.54;60.89;98691.75;5027418;28;20464;-69
2021/07/31 03:02:09;;;;;;;12.32;5.72;;;;;;;22.74;60.18;98692.63;5027906;28;20459;-70
2021/07/31 03:04:41;;;;;;;14.43;6.20;;;;;;;22.92;59.75;98693.63;4995434;28;20085;-73
2021/07/31 03:07:21;;;;;;;7.20;5.75;;;;;;;23.09;58.90;98700.94;5011210;28;20037;-72
2021/07/31 03:09:50;;;;;;;12.50;6.82;;;;;;;23.37;58.29;98707.22;5010268;28;20506;-70
2021/07/31 03:12:18;;;;;;;9.75;5.82;;;;;;;23.65;57.21;98705.50;5012097;28;20509;-72
2021/07/31 03:14:48;;;;;;;8.30;5.60;;;;;;;24.03;56.12;98703.69;5010079;28;20134;-71
2021/07/31 03:17:16;;;;;;;11.68;5.63;;;;;;;24.50;54.87;98712.47;5011038;28;20050;-70
2021/07/31 03:19:47;;;;;;;11.43;6.00;;;;;;;24.46;54.55;98702.22;4994616;28;20144;-70
2021/07/31 03:22:17;;;;;;;10.70;5.32;;;;;;;24.74;53.76;98709.22;5025960;28;20046;-71
2021/07/31 03:24:47;;;;;;;7.13;5.10;;;;;;;24.76;53.44;98706.41;5009978;28;20050;-71
2021/07/31 03:27:14;;;;;;;9.50;5.80;;;;;;;25.22;52.81;98706.19;4993217;28;20061;-71
2021/07/31 03:29:59;;;;;;;9.25;5.65;;;;;;;25.47;50.83;98696.53;5009853;28;20491;-71
2021/07/31 03:32:26;;;;;;;7.70;5.03;;;;;;;26.25;50.55;98712.56;5008889;28;20048;-73
2021/07/31 03:34:52;;;;;;;7.75;5.00;;;;;;;25.97;49.66;98712.75;5010873;28;20042;-72
2021/07/31 03:37:18;;;;;;;10.02;5.10;;;;;;;25.83;49.55;98715.19;4992807;28;20141;-72
2021/07/31 03:39:44;;;;;;;4.97;4.40;;;;;;;26.09;48.69;98718.69;5009961;28;20506;-74
2021/07/31 03:42:11;;;;;;;8.32;4.78;;;;;;;25.55;50.14;98703.75;4994525;28;20053;-73
2021/07/31 03:44:57;;;;;;;8.02;4.97;;;;;;;25.81;50.25;98725.22;5023400;28;20144;-74
2021/07/31 03:47:23;;;;;;;6.00;4.85;;;;;;;25.64;49.89;98725.09;5011100;28;20644;-74
2021/07/31 03:49:49;;;;;;;5.18;4.70;;;;;;;25.70;49.08;98715.59;5009813;28;20042;-74
2021/07/31 03:52:15;;;;;;;7.32;4.88;;;;;;;26.25;48.38;98729.47;4993489;28;20046;-73
2021/07/31 03:54:44;;;;;;;6.63;4.32;;;;;;;26.83;46.34;98720.66;5010071;28;20053;-71
2021/07/31 03:57:11;;;;;;;5.13;4.60;;;;;;;26.81;46.72;98722.66;5025459;28;20053;-71
2021/07/31 03:59:45;;;;;;;10.68;4.68;;;;;;;27.42;44.64;98724.06;5028539;28;20046;-71
2021/07/31 04:02:11;;;;;;;8.43;4.75;;;;;;;27.41;44.49;98722.38;4996293;28;20045;-71
2021/07/31 04:04:38;;;;;;;9.07;4.18;;;;;;;27.11;44.91;98726.56;5013161;28;20049;-72
2021/07/31 04:07:05;;;;;;;6.07;4.07;;;;;;;27.81;43.74;98712.63;5014216;28;20058;-73
2021/07/31 04:09:50;;;;;;;5.65;4.55;;;;;;;28.12;42.81;98724.28;5013636;28;20041;-73
2021/07/31 04:12:54;;;;;;;4.90;4.10;;;;;;;27.90;43.20;98727.72;4971836;28;20054;-73
2021/07/31 04:15:20;;;;;;;7.30;4.40;;;;;;;28.26;42.03;98716.56;4923731;28;20046;-73
2021/07/31 04:17:48;;;;;;;4.72;4.30;;;;;;;28.36;42.03;98714.50;4976600;28;20061;-73
2021/07/31 04:20:18;;;;;;;6.32;4.32;;;;;;;28.54;41.50;98725.84;5012832;28;20112;-73
2021/07/31 04:22:44;;;;;;;7.82;4.38;;;;;;;28.67;41.20;98714.50;5012604;28;20054;-73
2021/07/31 04:25:10;;;;;;;6.63;4.93;;;;;;;29.35;40.07;98724.47;5011698;28;20103;-78
2021/07/31 04:27:35;;;;;;;13.55;4.55;;;;;;;30.18;38.68;98720.81;5011553;28;20621;-75
2021/07/31 04:30:02;;;;;;;9.82;4.65;;;;;;;31.09;36.21;98728.38;5012876;28;20041;-75
2021/07/31 04:32:29;;;;;;;12.68;4.20;;;;;;;31.74;35.03;98730.03;5027084;28;20049;-78
2021/07/31 04:34:55;;;;;;;5.80;3.95;;;;;;;30.61;36.81;98728.06;5012028;28;20044;-75
2021/07/31 04:37:21;;;;;;;5.97;3.97;;;;;;;30.11;37.79;98728.00;5012090;28;20048;-77
2021/07/31 04:39:46;;;;;;;9.68;4.38;;;;;;;31.09;36.25;98730.22;5012556;28;20077;-76
2021/07/31 04:42:12;;;;;;;7.60;4.40;;;;;;;30.75;36.90;98728.22;4994604;28;20549;-76
2021/07/31 04:44:38;;;;;;;5.60;4.10;;;;;;;30.17;36.96;98714.59;5010014;28;20407;-76
2021/07/31 04:47:04;;;;;;;5.68;4.40;;;;;;;30.21;37.79;98717.75;4993699;28;20196;-75
2021/07/31 04:49:30;;;;;;;6.95;4.20;;;;;;;30.82;35.85;98716.47;5010098;28;20048;-75
2021/07/31 04:51:55;;;;;;;5.65;3.95;;;;;;;31.02;35.89;98719.38;5011345;28;20054;-76
2021/07/31 04:54:21;;;;;;;9.25;4.70;;;;;;;30.66;36.06;98720.25;4993757;28;20577;-75
2021/07/31 04:56:47;;;;;;;7.60;4.45;;;;;;;30.67;35.91;98711.13;5028275;28;20073;-76
2021/07/31 04:59:13;;;;;;;6.85;4.35;;;;;;;30.54;35.92;98715.50;5012377;28;20392;-78
2021/07/31 05:01:39;;;;;;;8.55;4.45;;;;;;;31.05;34.67;98724.38;5014382;28;20490;-75
2021/07/31 05:04:04;;;;;;;7.15;4.03;;;;;;;30.64;35.57;98722.28;5012944;28;20092;-75
2021/07/31 05:06:30;;;;;;;8.05;4.28;;;;;;;30.56;36.25;98708.88;5013048;28;20042;-74
2021/07/31 05:08:56;;;;;;;8.55;4.60;;;;;;;30.40;36.44;98711.78;5028481;28;20046;-76
2021/07/31 05:11:21;;;;;;;9.70;4.28;;;;;;;31.25;34.45;98722.75;5010001;28;20388;-75
2021/07/31 05:13:51;;;;;;;7.63;4.63;;;;;;;30.55;36.28;98704.50;5012898;28;20064;-75
2021/07/31 05:16:17;;;;;;;7.03;4.78;;;;;;;31.32;35.08;98721.97;4995129;28;20052;-73
2021/07/31 05:18:43;;;;;;;17.15;4.82;;;;;;;31.21;34.63;98707.97;5012475;28;20037;-72
2021/07/31 05:21:10;;;;;;;7.40;4.22;;;;;;;30.90;35.31;98712.81;5012143;28;20499;-73
2021/07/31 05:23:37;;;;;;;6.85;4.88;;;;;;;30.68;35.65;98722.75;5010722;28;20058;-73
2021/07/31 05:26:03;;;;;;;5.63;4.32;;;;;;;30.62;35.81;98728.91;5011366;28;20503;-73
2021/07/31 05:28:29;;;;;;;7.78;4.10;;;;;;;30.74;35.22;98721.97;5009923;28;20050;-75
2021/07/31 05:30:54;;;;;;;13.75;4.95;;;;;;;30.77;35.91;98710.81;4978478;28;20532;-73
2021/07/31 05:33:20;;;;;;;7.10;4.13;;;;;;;30.32;36.30;98725.38;4993943;28;20048;-74
2021/07/31 05:35:46;;;;;;;7.28;4.25;;;;;;;30.54;36.01;98729.81;4994549;28;20061;-73
2021/07/31 05:38:13;;;;;;;12.82;4.93;;;;;;;31.07;35.30;98733.13;4976137;28;20042;-77
2021/07/31 05:40:39;;;;;;;5.07;4.20;;;;;;;31.13;34.54;98724.25;5010925;28;20047;-75
2021/07/31 05:43:04;;;;;;;6.45;4.15;;;;;;;31.93;33.49;98728.50;4993154;28;20511;-72
2021/07/31 05:45:30;;;;;;;5.10;4.25;;;;;;;32.18;33.24;98737.00;5010341;28;20038;-73
2021/07/31 05:47:58;;;;;;;5.45;4.22;;;;;;;32.03;32.80;98723.59;5011317;28;20045;-74
2021/07/31 05:50:24;;;;;;;5.82;4.53;;;;;;;31.84;32.97;98730.53;4960449;28;20471;-73
2021/07/31 05:52:50;;;;;;;10.15;4.32;;;;;;;33.36;30.74;98719.50;5009396;28;20153;-72
2021/07/31 05:55:16;;;;;;;7.45;4.28;;;;;;;32.94;31.04;98713.41;5009785;28;20046;-73
2021/07/31 05:58:00;;;;;;;6.88;3.65;;;;;;;34.34;28.88;98724.03;5009365;28;20144;-74
2021/07/31 06:00:26;;;;;;;9.25;4.30;;;;;;;35.13;27.68;98719.28;4992910;28;20625;-76
2021/07/31 06:02:52;;;;;;;6.55;3.67;;;;;;;34.38;28.77;98714.41;4991419;28;20120;-74
2021/07/31 06:05:18;;;;;;;7.45;3.92;;;;;;;33.80;29.49;98713.44;5008033;28;20042;-72
2021/07/31 06:07:43;;;;;;;8.10;3.90;;;;;;;34.76;28.17;98716.31;5009788;28;20172;-72
2021/07/31 06:10:10;;;;;;;9.15;3.42;;;;;;;34.91;27.29;98700.56;5008585;28;20042;-74
2021/07/31 06:12:36;;;;;;;4.43;3.40;;;;;;;35.22;26.90;98721.50;4976908;28;20041;-74
2021/07/31 06:15:02;;;;;;;7.53;4.25;;;;;;;35.39;26.45;98713.66;4992352;28;20056;-75
2021/07/31 06:17:28;;;;;;;4.25;3.72;;;;;;;33.98;28.43;98707.41;4993855;28;20045;-73
2021/07/31 06:19:53;;;;;;;7.18;3.70;;;;;;;33.21;29.15;98699.88;4993450;28;20046;-73
2021/07/31 06:22:19;;;;;;;9.75;3.40;;;;;;;34.56;27.34;98700.13;4992212;28;20041;-76
2021/07/31 06:24:45;;;;;;;7.63;3.78;;;;;;;34.45;27.25;98702.69;4992475;28;20048;-74
2021/07/31 06:27:11;;;;;;;5.03;3.30;;;;;;;33.63;27.70;98706.81;4975476;28;20058;-74
2021/07/31 06:29:36;;;;;;;8.48;3.22;;;;;;;33.07;29.18;98713.41;4991651;28;20380;-73
2021/07/31 06:32:02;;;;;;;4.75;3.58;;;;;;;32.73;30.28;98703.53;4991657;28;20096;-73
2021/07/31 06:34:29;;;;;;;8.27;3.67;;;;;;;32.41;30.41;98702.34;4990691;28;20054;-76
2021/07/31 06:36:55;;;;;;;9.90;3.60;;;;;;;31.62;31.49;98701.84;4975003;28;20045;-72
2021/07/31 06:39:21;;;;;;;5.35;3.92;;;;;;;31.29;31.87;98694.31;4992711;28;20487;-74
2021/07/31 06:41:47;;;;;;;10.18;3.63;;;;;;;31.06;32.27;98699.03;4959877;28;20030;-75
2021/07/31 06:44:12;;;;;;;11.73;3.60;;;;;;;31.02;32.70;98702.31;4991873;28;20065;-76
2021/07/31 06:46:38;;;;;;;8.15;3.50;;;;;;;30.64;33.38;98692.59;4975274;28;20530;-76
2021/07/31 06:49:04;;;;;;;5.25;3.38;;;;;;;31.20;32.73;98706.25;5010033;28;20120;-77
2021/07/31 06:51:29;;;;;;;5.10;3.65;;;;;;;31.95;30.96;98712.06;4991344;28;20474;-77
2021/07/31 06:54:00;;;;;;;4.25;3.38;;;;;;;31.71;31.47;98713.38;5008828;28;20049;-77
2021/07/31 06:56:25;;;;;;;8.48;3.63;;;;;;;31.76;31.34;98709.03;5008650;28;20037;-77
2021/07/31 06:58:51;;;;;;;7.28;3.65;;;;;;;31.86;29.80;98696.00;5009101;28;20049;-77
2021/07/31 07:01:17;;;;;;;6.97;3.45;;;;;;;30.97;29.54;98698.34;4990478;28;20443;-79
2021/07/31 07:03:44;;;;;;;10.50;3.70;;;;;;;31.10;30.34;98711.13;4958819;28;20053;-75
2021/07/31 07:06:10;;;;;;;9.40;3.60;;;;;;;31.65;28.37;98708.72;4990759;28;20042;-75
2021/07/31 07:08:36;;;;;;;8.43;3.20;;;;;;;32.15;27.47;98704.91;4974946;28;20465;-72
2021/07/31 07:11:03;;;;;;;9.82;3.42;;;;;;;31.61;27.55;98708.28;4990562;28;20415;-73
2021/07/31 07:13:29;;;;;;;20.35;4.05;;;;;;;33.43;24.90;98698.66;4974352;28;20048;-74
2021/07/31 07:15:55;;;;;;;10.88;3.38;;;;;;;33.98;24.96;98705.50;4989808;28;20050;-75
2021/07/31 07:18:21;;;;;;;21.20;3.13;;;;;;;34.43;23.69;98700.19;4975522;28;20092;-71
2021/07/31 07:20:48;;;;;;;13.70;4.30;;;;;;;34.78;23.21;98700.63;4990160;28;20053;-73
2021/07/31 07:23:17;;;;;;;4.68;2.75;;;;;;;33.57;24.86;98700.34;4975828;28;20132;-73
2021/07/31 07:25:44;;;;;;;5.28;3.08;;;;;;;32.86;24.93;98691.91;5006248;28;20065;-73
2021/07/31 07:28:10;;;;;;;12.45;6.43;;;;;;;32.19;26.05;98701.63;4974010;28;20077;-75
2021/07/31 07:30:36;;;;;;;3.85;2.90;;;;;;;32.01;24.44;98698.59;4988226;28;20046;-74
2021/07/31 07:33:03;;;;;;;9.63;2.60;;;;;;;30.91;25.90;98699.09;4972815;28;20042;-74
2021/07/31 07:35:30;;;;;;;6.47;2.92;;;;;;;32.36;24.54;98704.84;5010753;28;20049;-73
2021/07/31 07:37:56;;;;;;;15.10;3.08;;;;;;;33.52;23.12;98702.84;5011522;28;20430;-73
2021/07/31 07:40:23;;;;;;;14.43;3.00;;;;;;;33.32;23.25;98713.66;4992737;28;20526;-74
2021/07/31 07:42:49;;;;;;;7.60;2.92;;;;;;;34.41;22.13;98715.88;4992390;28;20041;-75
2021/07/31 07:45:15;;;;;;;10.75;2.67;;;;;;;33.46;21.97;98690.97;4992905;28;20057;-73
2021/07/31 07:47:41;;;;;;;15.27;2.83;;;;;;;33.62;21.88;98703.25;4993321;28;20041;-73
2021/07/31 07:50:07;;;;;;;11.88;2.63;;;;;;;34.45;21.06;98702.69;4994194;28;20048;-72
2021/07/31 07:52:34;;;;;;;6.70;2.60;;;;;;;32.59;22.62;98700.97;4977887;28;20092;-72
2021/07/31 07:55:00;;;;;;;8.18;2.78;;;;;;;32.65;22.05;98705.56;4993302;28;20046;-73
2021/07/31 07:57:26;;;;;;;14.45;2.70;;;;;;;33.27;20.92;98705.28;4993667;28;20452;-73
2021/07/31 07:59:52;;;;;;;9.75;2.50;;;;;;;32.28;22.64;98696.88;4995434;28;20046;-73
2021/07/31 08:02:17;;;;;;;8.88;2.60;;;;;;;33.45;21.52;98696.59;5012925;28;20069;-73
2021/07/31 08:04:44;;;;;;;6.35;2.70;;;;;;;33.18;22.26;98699.25;4994890;28;20068;-73
2021/07/31 08:07:11;;;;;;;4.80;2.70;;;;;;;33.98;21.69;98702.78;5013718;28;20088;-73
2021/07/31 08:09:39;;;;;;;7.50;2.90;;;;;;;33.51;22.15;98701.19;5011989;28;20096;-72
2021/07/31 08:12:05;;;;;;;5.35;2.70;;;;;;;34.17;22.00;98705.66;4995767;28;20049;-75
2021/07/31 08:17:16;;;;;;;7.30;2.88;;;;;;;34.52;21.62;98709.75;4996334;28;20056;-72
2021/07/31 08:19:42;;;;;;;7.22;2.70;;;;;;;35.63;20.28;98701.09;5012768;28;20037;-73
2021/07/31 08:24:52;;;;;;;8.63;2.72;;;;;;;33.59;22.92;98710.97;4978289;28;20065;-72
2021/07/31 08:27:18;;;;;;;4.63;2.50;;;;;;;32.82;23.60;98705.03;5013762;28;20057;-74
2021/07/31 08:29:44;;;;;;;7.45;3.28;;;;;;;32.85;24.11;98729.00;5013055;28;20507;-74
2021/07/31 08:32:09;;;;;;;5.13;2.90;;;;;;;34.70;22.13;98715.31;4977447;28;20077;-73
2021/07/31 08:34:35;;;;;;;4.10;2.97;;;;;;;33.67;22.79;98714.31;5010958;28;20097;-73
2021/07/31 08:37:02;;;;;;;7.35;2.50;;;;;;;33.47;22.99;98708.06;4977702;28;20537;-74
2021/07/31 08:39:28;;;;;;;12.63;3.22;;;;;;;34.33;21.84;98710.69;4992478;28;20128;-75
2021/07/31 08:41:54;;;;;;;10.30;2.83;;;;;;;31.95;24.46;98714.78;4975873;28;20431;-75
2021/07/31 08:44:20;;;;;;;15.73;4.15;;;;;;;32.04;24.87;98708.19;4960511;28;20034;-77
2021/07/31 08:46:50;;;;;;;13.68;4.72;;;;;;;33.33;22.80;98719.94;4990418;28;20046;-74
2021/07/31 08:49:19;;;;;;;11.43;3.08;;;;;;;32.75;23.76;98700.63;5010884;28;20033;-75
2021/07/31 08:51:46;;;;;;;8.70;2.78;;;;;;;32.51;24.49;98710.94;4992541;28;20042;-76
2021/07/31 08:54:12;;;;;;;11.55;2.90;;;;;;;33.00;23.67;98718.00;5011579;28;20052;-75
2021/07/31 08:56:45;;;;;;;9.77;2.83;;;;;;;32.07;25.05;98676.16;4993371;28;20407;-74
2021/07/31 08:59:10;;;;;;;6.50;2.90;;;;;;;32.60;24.55;98718.88;4977008;28;20042;-73
2021/07/31 09:01:36;;;;;;;9.05;3.03;;;;;;;32.67;24.19;98703.47;4991795;28;20128;-76
2021/07/31 09:04:11;;;;;;;14.35;2.92;;;;;;;32.28;25.02;98696.06;4975987;28;20117;-77
2021/07/31 09:06:36;;;;;;;4.85;2.70;;;;;;;31.68;25.85;98702.91;4993079;28;20493;-73
2021/07/31 09:09:02;;;;;;;5.82;2.60;;;;;;;31.39;26.08;98714.75;5010434;28;20076;-81
2021/07/31 09:11:29;;;;;;;5.68;2.90;;;;;;;31.16;26.65;98723.91;5011577;28;20511;-73
2021/07/31 09:14:12;;;;;;;7.05;3.20;;;;;;;30.51;28.00;98713.19;4993130;28;20148;-73
2021/07/31 09:16:40;;;;;;;5.82;2.53;;;;;;;30.02;28.56;98702.97;4977697;28;20056;-71
2021/07/31 09:19:07;;;;;;;12.27;2.92;;;;;;;29.34;29.80;98710.16;4992645;28;20041;-73
2021/07/31 09:21:33;;;;;;;5.80;2.95;;;;;;;29.61;29.50;98705.22;4977796;28;20481;-71
2021/07/31 09:23:59;;;;;;;8.45;2.80;;;;;;;29.29;30.21;98703.66;4976934;28;20056;-76
2021/07/31 09:26:35;;;;;;;15.45;3.50;;;;;;;28.20;31.41;98714.50;5010698;28;20061;-74
2021/07/31 09:29:08;;;;;;;7.95;3.08;;;;;;;27.89;32.39;98720.66;5011001;28;20053;-73
2021/07/31 09:31:39;;;;;;;7.05;3.67;;;;;;;27.48;33.07;98707.25;5010416;28;20050;-74
2021/07/31 09:34:08;;;;;;;7.28;2.75;;;;;;;27.42;32.88;98704.41;5010746;28;20048;-74
2021/07/31 09:36:41;;;;;;;7.32;3.53;;;;;;;27.29;33.38;98723.72;5010164;28;20157;-73
2021/07/31 09:39:09;;;;;;;7.63;3.10;;;;;;;26.87;34.09;98707.75;4994147;28;20065;-75
2021/07/31 09:41:39;;;;;;;7.97;2.85;;;;;;;26.97;33.79;98694.16;4993366;28;20046;-74
2021/07/31 09:44:09;;;;;;;6.65;2.92;;;;;;;27.23;34.14;98721.72;4992760;28;20088;-74
2021/07/31 09:46:53;;;;;;;9.38;2.90;;;;;;;26.87;34.16;98723.84;4992052;28;20049;-74
2021/07/31 09:49:21;;;;;;;15.38;3.72;;;;;;;26.85;34.18;98732.06;5009817;28;20119;-74
2021/07/31 09:51:51;;;;;;;5.93;2.90;;;;;;;26.89;34.27;98728.03;4974914;28;20053;-79
2021/07/31 09:54:19;;;;;;;11.00;2.53;;;;;;;26.83;34.58;98712.59;4990322;28;20049;-77
2021/07/31 09:56:47;;;;;;;7.63;2.70;;;;;;;26.82;34.29;98710.91;4989218;28;20420;-75
2021/07/31 09:59:16;;;;;;;5.15;2.53;;;;;;;26.94;34.38;98727.53;4991677;28;20499;-73
2021/07/31 10:01:45;;;;;;;9.18;2.80;;;;;;;27.08;33.60;98713.50;4990324;28;20104;-71
2021/07/31 10:04:11;;;;;;;11.40;2.75;;;;;;;27.24;33.13;98720.72;4990610;28;20056;-72
2021/07/31 10:06:37;;;;;;;7.88;2.95;;;;;;;26.92;33.77;98718.81;4976201;28;20049;-72
2021/07/31 10:09:05;;;;;;;9.85;3.15;;;;;;;27.03;33.64;98718.53;4975545;28;20046;-73
2021/07/31 10:11:35;;;;;;;9.73;2.80;;;;;;;27.16;33.42;98731.44;4991874;28;20526;-77
2021/07/31 10:14:02;;;;;;;4.93;2.60;;;;;;;26.58;33.83;98708.16;4993318;28;20046;-72
2021/07/31 10:16:34;;;;;;;5.45;2.50;;;;;;;26.60;33.88;98725.78;4975936;28;20050;-77
2021/07/31 10:19:04;;;;;;;5.70;2.65;;;;;;;26.62;34.01;98727.44;4992097;28;20042;-71
2021/07/31 10:22:01;;;;;;;3.58;2.42;;;;;;;26.39;33.92;98721.84;4991793;28;20133;-71
2021/07/31 10:24:30;;;;;;;4.50;2.58;;;;;;;26.56;33.59;98731.63;5008329;28;20072;-73
2021/07/31 10:27:23;;;;;;;7.15;2.95;;;;;;;26.70;33.46;98733.69;5005338;28;20503;-75
2021/07/31 10:29:56;;;;;;;5.13;2.72;;;;;;;26.68;33.49;98722.25;5000759;28;20064;-73
2021/07/31 10:32:21;;;;;;;2.53;2.10;;;;;;;26.71;33.44;98713.88;5006982;28;20081;-73
2021/07/31 10:34:57;;;;;;;5.70;2.33;;;;;;;26.70;33.73;98719.41;5007823;28;20688;-72
2021/07/31 10:37:29;;;;;;;4.38;2.38;;;;;;;26.65;32.99;98733.31;5012481;28;20053;-74
2021/07/31 10:39:56;;;;;;;10.60;2.97;;;;;;;26.78;33.68;98720.31;5007734;28;20081;-74
2021/07/31 10:42:22;;;;;;;6.80;2.50;;;;;;;26.81;32.82;98733.41;5006954;28;20458;-75
2021/07/31 10:48:22;;;;;;;13.07;2.85;;;;;;;26.76;34.09;98726.84;5008228;28;20145;-74
2021/07/31 10:50:48;;;;;;;10.63;2.60;;;;;;;26.63;33.75;98711.19;5022527;28;20053;-76
2021/07/31 10:53:14;;;;;;;7.57;2.80;;;;;;;26.60;34.37;98720.41;5008142;28;20037;-75
2021/07/31 10:55:42;;;;;;;8.32;2.60;;;;;;;26.68;34.56;98724.94;5008067;28;20149;-73
2021/07/31 10:58:15;;;;;;;9.90;2.20;;;;;;;26.58;34.32;98719.72;5008007;28;20895;-71
2021/07/31 11:00:55;;;;;;;4.63;2.13;;;;;;;26.59;34.19;98724.09;5007022;28;20574;-72
2021/07/31 11:03:21;;;;;;;9.68;2.80;;;;;;;26.73;34.50;98730.66;5008521;28;20454;-73
2021/07/31 11:05:49;;;;;;;4.63;2.03;;;;;;;26.69;34.31;98726.63;4994313;28;20046;-72
2021/07/31 11:08:17;;;;;;;5.60;2.40;;;;;;;26.70;34.00;98731.00;5007653;28;20041;-68
2021/07/31 11:10:44;;;;;;;3.38;2.35;;;;;;;26.71;34.21;98721.09;4988055;28;20048;-66
2021/07/31 11:13:13;;;;;;;7.00;2.70;;;;;;;26.85;33.53;98732.06;5023000;28;20392;-67
2021/07/31 11:16:09;;;;;;;4.15;2.53;;;;;;;26.72;32.10;98728.16;4998306;28;20492;-68
2021/07/31 11:18:38;;;;;;;13.25;2.72;;;;;;;26.76;32.96;98733.03;5014571;28;20132;-67
2021/07/31 11:21:22;;;;;;;7.82;2.50;;;;;;;26.79;33.27;98737.25;4997908;28;20053;-68
2021/07/31 11:23:52;;;;;;;6.20;2.30;;;;;;;26.74;32.74;98731.50;5004109;28;20384;-68
2021/07/31 11:26:38;;;;;;;14.15;2.70;;;;;;;26.99;33.31;98745.88;4996363;28;20099;-66
2021/07/31 11:29:24;;;;;;;6.40;2.78;;;;;;;26.95;33.24;98742.63;5003953;28;20038;-68
2021/07/31 11:32:11;;;;;;;5.45;2.30;;;;;;;26.69;33.45;98748.09;5006123;28;20548;-69
2021/07/31 11:34:40;;;;;;;6.03;2.70;;;;;;;26.84;32.64;98730.38;5007339;28;20060;-66
2021/07/31 11:37:07;;;;;;;3.83;2.50;;;;;;;26.83;33.16;98735.91;5008735;28;20060;-69
2021/07/31 11:39:33;;;;;;;5.70;2.40;;;;;;;26.63;33.72;98738.00;4990087;28;20044;-70
2021/07/31 11:41:59;;;;;;;8.02;2.40;;;;;;;26.74;33.93;98743.06;4991590;28;20090;-68
2021/07/31 11:44:29;;;;;;;4.18;2.47;;;;;;;26.79;33.83;98746.13;5009185;28;20046;-67
2021/07/31 11:46:56;;;;;;;7.28;2.60;;;;;;;26.86;34.14;98728.38;5007366;28;20499;-69